Time;durP1;ratioP1;P1;durP2;ratioP2;P2;SDS_P1;SDS_P2;PMS_P1;PMS_P2;Temp;Humidity;BMP_temperature;BMP_pressure;BME280_temperature;BME280_humidity;BME280_pressure;Samples;Min_cycle;Max_cycle;Signal;HPM_P1;HPM_P2
2022/09/17 00:01:47;;;;;;;;;;;23.20;46.40;22.10;100570.00;;;;5105142;27;19915;-67
2022/09/17 00:04:33;;;;;;;;;;;23.20;46.40;22.10;100573.00;;;;5098359;27;19916;-66
2022/09/17 00:07:19;;;;;;;;;;;23.20;46.40;22.10;100578.00;;;;5100613;27;19919;-67
2022/09/17 00:10:05;;;;;;;;;;;23.20;46.40;22.10;100572.00;;;;5102708;27;19957;-67
2022/09/17 00:12:51;;;;;;;;;;;23.20;46.30;22.10;100579.00;;;;5100631;27;19964;-67
2022/09/17 00:15:41;;;;;;;;;;;23.20;47.10;22.10;100575.00;;;;5101450;27;20366;-66
2022/09/17 00:18:27;;;;;;;;;;;23.20;46.30;22.10;100579.00;;;;5100057;27;19915;-67
2022/09/17 00:21:16;;;;;;;;;;;23.20;46.30;22.10;100588.00;;;;5102812;27;19923;-67
2022/09/17 00:24:03;;;;;;;;;;;23.20;46.30;22.10;100587.00;;;;5099634;27;19920;-67
2022/09/17 00:26:49;;;;;;;;;;;23.20;46.30;22.10;100594.00;;;;5088808;28;19919;-66
2022/09/17 00:29:35;;;;;;;;;;;23.20;46.30;22.10;100596.00;;;;5100963;27;19911;-67
2022/09/17 00:32:22;;;;;;;;;;;23.30;46.40;22.10;100594.00;;;;5103832;27;19959;-67
2022/09/17 00:35:08;;;;;;;;;;;23.20;46.30;22.00;100599.00;;;;5104461;28;20009;-67
2022/09/17 00:37:54;;;;;;;;;;;23.20;46.40;22.00;100600.00;;;;5094464;28;19916;-67
2022/09/17 00:40:40;;;;;;;;;;;23.20;46.30;22.00;100603.00;;;;5101700;28;19918;-67
2022/09/17 00:43:41;;;;;;;;;;;23.20;47.10;22.00;100596.00;;;;5101835;27;19923;-67
2022/09/17 00:46:42;;;;;;;;;;;23.20;46.40;22.00;100601.00;;;;5103642;27;20019;-67
2022/09/17 00:49:28;;;;;;;;;;;23.20;46.40;22.00;100610.00;;;;5102142;27;19970;-66
2022/09/17 00:52:20;;;;;;;;;;;23.20;46.40;22.00;100607.00;;;;5078694;28;19918;-67
2022/09/17 00:55:19;;;;;;;;;;;23.20;46.40;22.00;100612.00;;;;5086166;28;20265;-67
2022/09/17 00:58:08;;;;;;;;;;;23.20;46.40;22.00;100616.00;;;;5087125;28;20473;-67
2022/09/17 01:00:54;;;;;;;;;;;23.20;46.40;22.00;100611.00;;;;5112703;27;19912;-67
2022/09/17 01:03:40;;;;;;;;;;;23.20;46.30;22.00;100615.00;;;;5104680;27;19924;-67
2022/09/17 01:06:33;;;;;;;;;;;23.10;46.30;22.00;100612.00;;;;5087544;28;19919;-67
2022/09/17 01:09:35;;;;;;;;;;;23.10;46.30;22.00;100605.00;;;;5104817;28;19915;-67
2022/09/17 01:12:40;;;;;;;;;;;23.10;46.40;22.00;100613.00;;;;5099331;27;20172;-67
2022/09/17 01:15:34;;;;;;;;;;;23.10;46.30;22.00;100607.00;;;;5102765;27;20004;-67
2022/09/17 01:18:23;;;;;;;;;;;23.10;46.30;22.00;100607.00;;;;5086194;28;20002;-67
2022/09/17 01:21:12;;;;;;;;;;;23.10;46.40;22.00;100608.00;;;;5087154;28;20180;-67
2022/09/17 01:24:14;;;;;;;;;;;23.10;46.30;22.00;100611.00;;;;5090622;28;20051;-67
2022/09/17 01:27:14;;;;;;;;;;;23.10;46.30;22.00;100613.00;;;;5099826;28;20368;-67
2022/09/17 01:30:26;;;;;;;;;;;23.00;46.30;22.00;100623.00;;;;5101608;28;19915;-67
2022/09/17 01:33:37;;;;;;;;;;;23.10;46.30;22.00;100613.00;;;;5103698;27;19916;-66
2022/09/17 01:36:48;;;;;;;;;;;23.10;46.30;22.00;100622.00;;;;5089769;28;19911;-67
2022/09/17 01:39:46;;;;;;;;;;;23.10;46.30;22.00;100617.00;;;;5085226;28;19927;-67
2022/09/17 01:42:50;;;;;;;;;;;23.10;46.30;22.00;100613.00;;;;5098128;27;20011;-66
2022/09/17 01:45:40;;;;;;;;;;;23.10;46.30;21.90;100615.00;;;;5098609;28;20368;-67
2022/09/17 01:48:30;;;;;;;;;;;23.10;46.20;21.90;100623.00;;;;5086583;28;19912;-66
2022/09/17 01:51:17;;;;;;;;;;;23.10;46.20;21.90;100631.00;;;;5075305;28;19946;-66
2022/09/17 01:54:10;;;;;;;;;;;23.10;46.20;21.90;100628.00;;;;5088335;28;19916;-67
2022/09/17 01:57:04;;;;;;;;;;;23.10;46.20;21.90;100628.00;;;;5102710;28;19911;-67
2022/09/17 01:59:55;;;;;;;;;;;23.10;46.30;21.90;100638.00;;;;5083750;28;19960;-67
2022/09/17 02:02:53;;;;;;;;;;;23.10;46.30;21.90;100643.00;;;;5097404;28;20510;-66
2022/09/17 02:06:00;;;;;;;;;;;23.10;46.20;21.90;100638.00;;;;5102151;28;19920;-66
2022/09/17 02:09:01;;;;;;;;;;;23.00;46.20;21.90;100631.00;;;;5088460;28;19915;-67
2022/09/17 02:11:50;;;;;;;;;;;23.00;46.20;21.90;100634.00;;;;5096787;28;19947;-66
2022/09/17 02:14:38;;;;;;;;;;;23.10;46.20;21.90;100619.00;;;;5099561;28;19920;-67
2022/09/17 02:17:29;;;;;;;;;;;23.00;46.20;21.90;100625.00;;;;5088176;28;19935;-67
2022/09/17 02:20:15;;;;;;;;;;;23.00;46.20;21.90;100627.00;;;;5076905;28;20299;-67
2022/09/17 02:23:04;;;;;;;;;;;23.10;46.20;21.90;100624.00;;;;5098417;28;19920;-67
2022/09/17 02:25:53;;;;;;;;;;;23.00;46.20;21.90;100627.00;;;;5088804;28;19916;-67
2022/09/17 02:28:46;;;;;;;;;;;23.00;46.10;21.90;100621.00;;;;5084213;28;20072;-67
2022/09/17 02:31:33;;;;;;;;;;;23.00;46.10;21.90;100624.00;;;;5084080;28;20355;-67
2022/09/17 02:34:19;;;;;;;;;;;23.00;46.20;21.90;100627.00;;;;5098984;28;19997;-67
2022/09/17 02:37:05;;;;;;;;;;;23.00;46.10;21.90;100624.00;;;;5087137;28;19989;-67
2022/09/17 02:39:51;;;;;;;;;;;23.00;46.10;21.90;100623.00;;;;5071749;28;20299;-67
2022/09/17 02:43:01;;;;;;;;;;;23.00;46.10;21.90;100627.00;;;;5100902;28;19985;-67
2022/09/17 02:46:33;;;;;;;;;;;23.00;46.10;21.90;100626.00;;;;5098492;28;20415;-67
2022/09/17 02:49:42;;;;;;;;;;;23.00;46.10;21.90;100636.00;;;;5088387;28;19966;-67
2022/09/17 02:52:48;;;;;;;;;;;23.00;46.10;21.80;100628.00;;;;5088917;28;19920;-67
2022/09/17 02:55:49;;;;;;;;;;;23.00;46.10;21.80;100633.00;;;;5103435;27;19919;-67
2022/09/17 02:58:54;;;;;;;;;;;23.00;46.10;21.80;100641.00;;;;5102020;27;19972;-66
2022/09/17 03:01:51;;;;;;;;;;;23.00;46.00;21.80;100639.00;;;;5104382;27;19924;-67
2022/09/17 03:04:37;;;;;;;;;;;22.90;46.00;21.80;100655.00;;;;5089266;27;19927;-67
2022/09/17 03:07:23;;;;;;;;;;;22.90;46.10;21.80;100648.00;;;;5090834;27;19920;-66
2022/09/17 03:10:09;;;;;;;;;;;23.00;46.10;21.80;100651.00;;;;5075486;28;19911;-67
2022/09/17 03:12:55;;;;;;;;;;;23.00;46.10;21.80;100644.00;;;;5101619;27;20353;-66
2022/09/17 03:15:41;;;;;;;;;;;22.90;46.10;21.80;100645.00;;;;5106828;27;19930;-66
2022/09/17 03:18:27;;;;;;;;;;;22.90;46.00;21.80;100654.00;;;;5105421;27;19923;-66
2022/09/17 03:21:13;;;;;;;;;;;22.90;46.00;21.80;100657.00;;;;5103789;27;19920;-67
2022/09/17 03:23:59;;;;;;;;;;;23.00;46.00;21.80;100647.00;;;;5105507;27;19930;-66
2022/09/17 03:26:46;;;;;;;;;;;22.90;46.00;21.80;100651.00;;;;5106920;27;20265;-66
2022/09/17 03:29:32;;;;;;;;;;;23.00;46.00;21.80;100645.00;;;;5103007;27;20354;-66
2022/09/17 03:32:18;;;;;;;;;;;22.90;46.00;21.80;100647.00;;;;5104583;27;20280;-67
2022/09/17 03:35:04;;;;;;;;;;;22.90;46.00;21.80;100653.00;;;;5104598;27;20369;-66
2022/09/17 03:37:50;;;;;;;;;;;23.00;46.00;21.80;100655.00;;;;5101620;27;20298;-67
2022/09/17 03:40:36;;;;;;;;;;;22.90;46.00;21.80;100655.00;;;;5104228;27;19922;-67
2022/09/17 03:43:22;;;;;;;;;;;22.90;46.00;21.80;100650.00;;;;5102880;27;19919;-67
2022/09/17 03:46:08;;;;;;;;;;;22.90;46.00;21.80;100656.00;;;;5104288;27;19976;-66
2022/09/17 03:48:54;;;;;;;;;;;22.90;46.00;21.80;100651.00;;;;5102619;27;20394;-67
2022/09/17 03:51:40;;;;;;;;;;;22.90;46.00;21.80;100654.00;;;;5103961;27;20326;-67
2022/09/17 03:54:26;;;;;;;;;;;22.90;46.00;21.80;100659.00;;;;5107311;27;19919;-66
2022/09/17 03:57:12;;;;;;;;;;;22.90;45.90;21.80;100655.00;;;;5106221;27;19961;-66
2022/09/17 03:59:58;;;;;;;;;;;22.90;45.90;21.80;100657.00;;;;5103738;27;19916;-66
2022/09/17 04:02:44;;;;;;;;;;;22.90;45.90;21.80;100661.00;;;;5109375;27;19958;-67
2022/09/17 04:05:30;;;;;;;;;;;22.90;45.90;21.80;100660.00;;;;5107567;27;19957;-67
2022/09/17 04:08:16;;;;;;;;;;;22.90;45.90;21.80;100663.00;;;;5102155;28;20010;-67
2022/09/17 04:11:02;;;;;;;;;;;22.90;45.90;21.80;100669.00;;;;5089941;27;19919;-67
2022/09/17 04:13:48;;;;;;;;;;;22.90;45.90;21.80;100675.00;;;;5103858;27;20034;-67
2022/09/17 04:16:34;;;;;;;;;;;22.90;45.90;21.70;100672.00;;;;5106391;27;19938;-67
2022/09/17 04:19:20;;;;;;;;;;;22.80;45.80;21.70;100667.00;;;;5107199;27;19977;-66
2022/09/17 04:22:06;;;;;;;;;;;22.90;45.90;21.70;100670.00;;;;5103003;28;19915;-67
2022/09/17 04:24:52;;;;;;;;;;;22.80;45.80;21.70;100669.00;;;;5105368;27;20555;-66
2022/09/17 04:27:38;;;;;;;;;;;22.90;45.80;21.70;100663.00;;;;5107543;27;19919;-67
2022/09/17 04:30:24;;;;;;;;;;;22.90;45.80;21.70;100664.00;;;;5103390;27;19919;-67
2022/09/17 04:33:10;;;;;;;;;;;22.80;45.70;21.70;100667.00;;;;5104844;27;19915;-66
2022/09/17 04:35:56;;;;;;;;;;;22.80;45.70;21.70;100677.00;;;;5091049;27;19911;-67
2022/09/17 04:38:42;;;;;;;;;;;22.80;45.70;21.70;100673.00;;;;5103577;27;19923;-66
2022/09/17 04:41:28;;;;;;;;;;;22.80;45.70;21.70;100676.00;;;;5100313;27;19911;-66
2022/09/17 04:44:14;;;;;;;;;;;22.80;45.70;21.70;100678.00;;;;5100079;28;19916;-66
2022/09/17 04:47:00;;;;;;;;;;;22.80;45.70;21.70;100686.00;;;;5105019;27;20687;-67
2022/09/17 04:49:46;;;;;;;;;;;22.80;45.70;21.70;100681.00;;;;5103975;28;20341;-67
2022/09/17 04:52:32;;;;;;;;;;;22.80;45.70;21.70;100683.00;;;;5105030;27;19920;-66
2022/09/17 04:55:18;;;;;;;;;;;22.80;45.70;21.70;100679.00;;;;5102248;27;19912;-67
2022/09/17 04:58:04;;;;;;;;;;;22.80;45.70;21.70;100681.00;;;;5098180;27;19912;-67
2022/09/17 05:00:50;;;;;;;;;;;22.80;45.70;21.70;100682.00;;;;5100266;28;20315;-66
2022/09/17 05:03:36;;;;;;;;;;;22.80;45.80;21.70;100673.00;;;;5096673;28;19960;-67
2022/09/17 05:06:22;;;;;;;;;;;22.80;45.70;21.70;100669.00;;;;5102715;28;19915;-67
2022/09/17 05:09:08;;;;;;;;;;;22.80;45.70;21.70;100677.00;;;;5087599;28;20006;-66
2022/09/17 05:11:54;;;;;;;;;;;22.80;45.70;21.70;100676.00;;;;5100278;27;20415;-66
2022/09/17 05:14:40;;;;;;;;;;;22.80;45.70;21.70;100680.00;;;;5098657;28;19926;-67
2022/09/17 05:17:26;;;;;;;;;;;22.90;45.70;21.70;100681.00;;;;5102789;27;19918;-66
2022/09/17 05:20:12;;;;;;;;;;;22.80;45.70;21.70;100687.00;;;;5099884;28;19919;-67
2022/09/17 05:22:58;;;;;;;;;;;22.80;45.70;21.60;100688.00;;;;5102401;27;20357;-67
2022/09/17 05:25:44;;;;;;;;;;;22.80;45.70;21.70;100703.00;;;;5104844;27;19911;-67
2022/09/17 05:28:30;;;;;;;;;;;22.80;45.60;21.60;100706.00;;;;5086235;28;20372;-66
2022/09/17 05:31:16;;;;;;;;;;;22.80;45.60;21.60;100712.00;;;;5095023;28;19927;-67
2022/09/17 05:34:02;;;;;;;;;;;22.80;45.60;21.60;100707.00;;;;5101216;27;19915;-67
2022/09/17 05:36:48;;;;;;;;;;;22.80;45.60;21.60;100706.00;;;;5101977;28;19923;-67
2022/09/17 05:39:34;;;;;;;;;;;22.80;45.60;21.60;100712.00;;;;5100495;27;19926;-67
2022/09/17 05:42:20;;;;;;;;;;;22.80;45.60;21.60;100704.00;;;;5100570;28;19927;-66
2022/09/17 05:45:07;;;;;;;;;;;22.80;45.50;21.60;100711.00;;;;5101254;27;19912;-67
2022/09/17 05:48:02;;;;;;;;;;;22.80;45.60;21.60;100703.00;;;;5098396;28;19912;-67
2022/09/17 05:50:49;;;;;;;;;;;22.70;45.50;21.60;100706.00;;;;5102910;28;20006;-66
2022/09/17 05:53:35;;;;;;;;;;;22.70;45.50;21.60;100706.00;;;;5102949;28;20010;-67
2022/09/17 05:56:22;;;;;;;;;;;22.80;45.50;21.60;100711.00;;;;5104877;28;19931;-67
2022/09/17 05:59:08;;;;;;;;;;;22.70;45.50;21.60;100716.00;;;;5099532;28;20427;-67
2022/09/17 06:01:54;;;;;;;;;;;22.70;45.50;21.60;100711.00;;;;5104058;28;20364;-66
2022/09/17 06:04:40;;;;;;;;;;;22.70;45.50;21.60;100716.00;;;;5099995;28;19920;-66
2022/09/17 06:07:26;;;;;;;;;;;22.70;45.50;21.60;100717.00;;;;5086789;28;19916;-67
2022/09/17 06:10:12;;;;;;;;;;;22.70;45.50;21.60;100723.00;;;;5100177;28;19923;-66
2022/09/17 06:12:58;;;;;;;;;;;22.70;45.50;21.60;100736.00;;;;5100854;28;19962;-66
2022/09/17 06:15:53;;;;;;;;;;;22.70;45.50;21.50;100734.00;;;;5085828;28;19918;-66
2022/09/17 06:18:39;;;;;;;;;;;22.70;45.50;21.60;100738.00;;;;5088725;28;19969;-67
2022/09/17 06:21:25;;;;;;;;;;;22.70;45.50;21.50;100737.00;;;;5098947;28;19985;-65
2022/09/17 06:24:11;;;;;;;;;;;22.70;44.60;21.30;100743.00;;;;5101675;28;19920;-66
2022/09/17 06:26:57;;;;;;;;;;;22.70;44.20;21.00;100741.00;;;;5105842;28;20276;-66
2022/09/17 06:29:43;;;;;;;;;;;22.40;43.70;20.80;100747.00;;;;5101958;27;20285;-66
2022/09/17 06:32:29;;;;;;;;;;;22.40;43.90;20.50;100748.00;;;;5105309;27;19916;-65
2022/09/17 06:35:15;;;;;;;;;;;22.10;43.60;20.30;100742.00;;;;5101719;27;20223;-65
2022/09/17 06:38:04;;;;;;;;;;;21.90;43.80;20.10;100752.00;;;;5106687;27;20397;-65
2022/09/17 06:40:51;;;;;;;;;;;21.60;44.10;20.10;100756.00;;;;5102434;28;19911;-65
2022/09/17 06:43:37;;;;;;;;;;;21.40;44.40;20.00;100760.00;;;;5102762;27;20288;-65
2022/09/17 06:46:23;;;;;;;;;;;21.30;44.60;20.00;100767.00;;;;5103500;27;20395;-66
2022/09/17 06:49:09;;;;;;;;;;;21.20;44.70;19.90;100763.00;;;;5103463;27;19930;-66
2022/09/17 06:51:55;;;;;;;;;;;21.10;44.80;19.90;100753.00;;;;5105582;27;20103;-66
2022/09/17 06:54:41;;;;;;;;;;;21.00;44.90;19.80;100751.00;;;;5104185;27;19912;-66
2022/09/17 06:57:27;;;;;;;;;;;21.00;45.00;19.80;100746.00;;;;5099296;28;19919;-65
2022/09/17 07:00:14;;;;;;;;;;;20.90;45.00;19.70;100752.00;;;;5101142;27;19912;-65
2022/09/17 07:02:59;;;;;;;;;;;20.90;45.10;19.70;100753.00;;;;5100769;28;20574;-66
2022/09/17 07:05:46;;;;;;;;;;;20.80;45.10;19.60;100758.00;;;;5099461;28;20382;-65
2022/09/17 07:08:33;;;;;;;;;;;20.70;45.10;19.60;100753.00;;;;5102593;27;20311;-65
2022/09/17 07:11:19;;;;;;;;;;;20.70;45.20;19.60;100763.00;;;;5107129;27;19927;-65
2022/09/17 07:14:14;;;;;;;;;;;20.70;45.20;19.60;100756.00;;;;5102212;27;19923;-65
2022/09/17 07:17:02;;;;;;;;;;;20.60;45.30;19.60;100755.00;;;;5098554;27;19927;-65
2022/09/17 07:19:48;;;;;;;;;;;20.70;45.20;19.60;100754.00;;;;5098536;28;19912;-65
2022/09/17 07:22:34;;;;;;;;;;;20.70;45.20;19.60;100758.00;;;;5090889;27;19926;-65
2022/09/17 07:25:20;;;;;;;;;;;20.70;45.20;19.60;100761.00;;;;5098401;28;19919;-65
2022/09/17 07:28:06;;;;;;;;;;;20.70;45.20;19.70;100764.00;;;;5081916;27;19954;-65
2022/09/17 07:30:52;;;;;;;;;;;20.70;45.30;19.70;100772.00;;;;5105048;27;19915;-66
2022/09/17 07:33:38;;;;;;;;;;;20.70;45.50;19.80;100771.00;;;;5100724;28;20369;-65
2022/09/17 07:36:24;;;;;;;;;;;20.80;45.70;19.90;100764.00;;;;5107748;27;19922;-65
2022/09/17 07:39:12;;;;;;;;;;;20.80;45.70;20.00;100763.00;;;;5101094;28;19911;-65
2022/09/17 07:41:58;;;;;;;;;;;20.90;45.80;20.10;100754.00;;;;5090899;27;19922;-65
2022/09/17 07:44:45;;;;;;;;;;;20.90;45.90;20.20;100770.00;;;;5106319;27;19984;-65
2022/09/17 07:47:31;;;;;;;;;;;21.10;45.90;20.20;100762.00;;;;5105343;27;20052;-65
2022/09/17 07:50:17;;;;;;;;;;;21.10;45.80;20.30;100758.00;;;;5108269;27;20318;-65
2022/09/17 07:53:03;;;;;;;;;;;21.20;45.90;20.40;100762.00;;;;5103404;27;20388;-65
2022/09/17 07:55:59;;;;;;;;;;;21.30;45.90;20.50;100764.00;;;;5104763;27;19918;-65
2022/09/17 07:58:45;;;;;;;;;;;21.40;45.90;20.50;100767.00;;;;5089604;27;19954;-65
2022/09/17 08:01:33;;;;;;;;;;;21.50;45.90;20.60;100765.00;;;;5104196;27;19911;-65
2022/09/17 08:04:18;;;;;;;;;;;21.60;45.90;20.70;100763.00;;;;5093709;28;19970;-66
2022/09/17 08:07:04;;;;;;;;;;;21.60;45.80;20.70;100755.00;;;;5101387;28;19916;-65
2022/09/17 08:09:50;;;;;;;;;;;21.70;45.80;20.80;100749.00;;;;5103964;27;20325;-65
2022/09/17 08:12:36;;;;;;;;;;;21.80;45.80;20.80;100748.00;;;;5085210;28;19918;-65
2022/09/17 08:15:22;;;;;;;;;;;21.80;46.40;20.90;100756.00;;;;5092544;28;19919;-66
2022/09/17 08:18:08;;;;;;;;;;;21.80;45.70;20.90;100763.00;;;;5105678;27;20253;-65
2022/09/17 08:20:58;;;;;;;;;;;22.00;45.80;21.00;100752.00;;;;5094264;27;20376;-65
2022/09/17 08:23:44;;;;;;;;;;;22.00;45.70;21.00;100757.00;;;;5094678;27;20336;-65
2022/09/17 08:26:30;;;;;;;;;;;22.00;45.60;21.00;100753.00;;;;5103981;27;20219;-65
2022/09/17 08:29:16;;;;;;;;;;;22.10;45.60;21.10;100759.00;;;;5100917;27;19916;-65
2022/09/17 08:32:02;;;;;;;;;;;22.20;45.60;21.10;100762.00;;;;5101234;27;19916;-65
2022/09/17 08:34:48;;;;;;;;;;;22.20;45.60;21.10;100766.00;;;;5106251;27;19919;-65
2022/09/17 08:37:34;;;;;;;;;;;22.30;45.50;21.20;100756.00;;;;5095070;28;19919;-65
2022/09/17 08:40:21;;;;;;;;;;;22.20;45.50;21.20;100768.00;;;;5100668;27;19911;-65
2022/09/17 08:43:07;;;;;;;;;;;22.30;45.50;21.20;100763.00;;;;5100948;27;19922;-66
2022/09/17 08:45:54;;;;;;;;;;;22.40;46.20;21.20;100761.00;;;;5088975;27;19933;-62
2022/09/17 08:49:00;;;;;;;;;;;22.40;45.50;21.20;100763.00;;;;5104364;27;19926;-62
2022/09/17 08:52:05;;;;;;;;;;;22.40;45.40;21.30;100755.00;;;;5102924;27;19915;-63
2022/09/17 08:55:17;;;;;;;;;;;22.50;45.50;21.30;100759.00;;;;5089083;27;20098;-62
2022/09/17 08:58:26;;;;;;;;;;;22.50;45.50;21.30;100756.00;;;;5102262;27;19923;-62
2022/09/17 09:01:24;;;;;;;;;;;22.50;45.40;21.30;100756.00;;;;5090354;27;19965;-62
2022/09/17 09:04:43;;;;;;;;;;;22.50;45.40;21.30;100762.00;;;;5096115;28;19920;-63
2022/09/17 09:07:33;;;;;;;;;;;22.50;45.40;21.30;100753.00;;;;5088173;27;19919;-62
2022/09/17 09:10:22;;;;;;;;;;;22.50;45.40;21.40;100769.00;;;;5088065;28;20002;-64
2022/09/17 09:13:08;;;;;;;;;;;22.60;45.40;21.40;100767.00;;;;5075586;28;20123;-63
2022/09/17 09:15:58;;;;;;;;;;;22.60;45.30;21.40;100761.00;;;;5083666;28;19926;-63
2022/09/17 09:18:45;;;;;;;;;;;22.60;45.20;21.40;100757.00;;;;5097890;28;19912;-63
2022/09/17 09:21:39;;;;;;;;;;;22.60;45.20;21.40;100761.00;;;;5093643;27;19916;-63
2022/09/17 09:24:25;;;;;;;;;;;22.60;45.20;21.40;100767.00;;;;5082921;27;19976;-63
2022/09/17 09:27:20;;;;;;;;;;;22.60;45.20;21.40;100763.00;;;;5098473;28;20162;-63
2022/09/17 09:30:09;;;;;;;;;;;22.60;45.30;21.40;100757.00;;;;5092448;27;19911;-62
2022/09/17 09:33:12;;;;;;;;;;;22.70;45.30;21.40;100755.00;;;;5085900;28;20383;-63
2022/09/17 09:35:58;;;;;;;;;;;22.60;45.20;21.40;100748.00;;;;5088737;28;19999;-63
2022/09/17 09:39:00;;;;;;;;;;;22.70;45.20;21.40;100751.00;;;;5084724;27;19947;-63
2022/09/17 09:41:48;;;;;;;;;;;22.70;45.20;21.40;100776.00;;;;5085777;28;20354;-65
2022/09/17 09:44:34;;;;;;;;;;;22.70;45.20;21.40;100758.00;;;;5114846;27;20375;-65
2022/09/17 09:47:26;;;;;;;;;;;22.70;45.20;21.40;100766.00;;;;5097601;28;19912;-65
2022/09/17 09:50:45;;;;;;;;;;;22.70;45.20;21.50;100761.00;;;;5113065;27;20300;-65
2022/09/17 09:53:43;;;;;;;;;;;22.70;45.20;21.50;100772.00;;;;5093897;28;19955;-66
2022/09/17 09:56:36;;;;;;;;;;;22.70;45.10;21.50;100768.00;;;;5074088;28;19950;-67
2022/09/17 09:59:23;;;;;;;;;;;22.70;45.10;21.50;100766.00;;;;5085290;28;20556;-66
2022/09/17 10:02:09;;;;;;;;;;;22.70;45.10;21.50;100759.00;;;;5104944;28;19919;-66
2022/09/17 10:05:09;;;;;;;;;;;22.70;45.10;21.50;100767.00;;;;5078244;27;19912;-66
2022/09/17 10:07:55;;;;;;;;;;;22.80;45.20;21.50;100763.00;;;;5097791;27;19920;-66
2022/09/17 10:11:12;;;;;;;;;;;22.70;45.10;21.50;100757.00;;;;5105294;27;20048;-66
2022/09/17 10:14:24;;;;;;;;;;;22.80;45.20;21.50;100756.00;;;;5100790;27;19915;-66
2022/09/17 10:17:15;;;;;;;;;;;22.80;45.10;21.50;100755.00;;;;5089043;28;20293;-66
2022/09/17 10:20:04;;;;;;;;;;;22.80;45.10;21.60;100755.00;;;;5076237;27;20376;-66
2022/09/17 10:22:50;;;;;;;;;;;22.80;45.10;21.60;100747.00;;;;5101259;27;20357;-66
2022/09/17 10:25:41;;;;;;;;;;;22.80;45.00;21.60;100758.00;;;;5090816;27;19919;-66
2022/09/17 10:28:32;;;;;;;;;;;22.80;45.10;21.60;100752.00;;;;5082236;27;20314;-65
2022/09/17 10:31:18;;;;;;;;;;;22.80;45.00;21.60;100742.00;;;;5094152;27;19947;-66
2022/09/17 10:34:04;;;;;;;;;;;22.80;45.00;21.60;100750.00;;;;5100695;28;19919;-66
2022/09/17 10:36:50;;;;;;;;;;;22.90;45.00;21.60;100753.00;;;;5085464;28;19918;-65
2022/09/17 10:39:43;;;;;;;;;;;22.90;45.00;21.60;100754.00;;;;5102077;27;19915;-66
2022/09/17 10:42:29;;;;;;;;;;;22.90;45.00;21.60;100739.00;;;;5092899;27;19916;-66
2022/09/17 10:45:29;;;;;;;;;;;22.90;44.90;21.60;100742.00;;;;5091171;28;19963;-66
2022/09/17 10:48:19;;;;;;;;;;;23.00;45.00;21.60;100750.00;;;;5090247;27;19916;-66
2022/09/17 10:51:07;;;;;;;;;;;22.90;45.00;21.60;100752.00;;;;5089014;28;19994;-65
2022/09/17 10:54:11;;;;;;;;;;;22.90;44.90;21.60;100753.00;;;;5101515;27;20301;-65
2022/09/17 10:56:57;;;;;;;;;;;22.90;44.90;21.60;100750.00;;;;5106443;27;20277;-66
2022/09/17 11:00:12;;;;;;;;;;;22.90;44.70;21.60;100740.00;;;;5102516;27;20006;-66
2022/09/17 11:03:17;;;;;;;;;;;22.90;44.80;21.60;100736.00;;;;5071674;27;20150;-67
2022/09/17 11:06:27;;;;;;;;;;;22.90;44.80;21.60;100726.00;;;;5103926;27;19922;-67
2022/09/17 11:09:28;;;;;;;;;;;22.90;44.80;21.60;100719.00;;;;5104350;27;19912;-67
2022/09/17 11:12:27;;;;;;;;;;;22.90;44.80;21.60;100716.00;;;;5105670;27;19965;-66
2022/09/17 11:15:44;;;;;;;;;;;22.90;44.70;21.60;100722.00;;;;5081558;28;19923;-66
2022/09/17 11:18:33;;;;;;;;;;;22.90;44.70;21.60;100727.00;;;;5086676;28;20323;-67
2022/09/17 11:21:53;;;;;;;;;;;22.90;44.80;21.60;100723.00;;;;5086549;27;19922;-66
2022/09/17 11:25:16;;;;;;;;;;;22.90;44.80;21.60;100728.00;;;;5086614;28;19916;-67
2022/09/17 11:28:43;;;;;;;;;;;22.90;44.80;21.60;100728.00;;;;5105975;27;19919;-66
2022/09/17 11:31:50;;;;;;;;;;;22.90;44.80;21.70;100735.00;;;;5053331;28;19913;-66
2022/09/17 11:34:37;;;;;;;;;;;22.90;44.80;21.70;100740.00;;;;5058172;28;19925;-66
2022/09/17 11:37:34;;;;;;;;;;;22.90;44.80;21.70;100736.00;;;;5107973;27;19911;-67
2022/09/17 11:40:40;;;;;;;;;;;22.90;44.80;21.70;100724.00;;;;5093402;27;20327;-66
2022/09/17 11:43:36;;;;;;;;;;;22.90;44.80;21.70;100718.00;;;;5088734;28;19916;-67
2022/09/17 11:46:31;;;;;;;;;;;22.90;44.80;21.70;100722.00;;;;5090769;28;19970;-66
2022/09/17 11:49:28;;;;;;;;;;;22.90;44.70;21.70;100715.00;;;;5083122;28;19922;-67
2022/09/17 11:52:34;;;;;;;;;;;23.00;44.80;21.70;100724.00;;;;5101563;27;19919;-67
2022/09/17 11:55:43;;;;;;;;;;;22.90;44.70;21.70;100720.00;;;;5105605;27;19911;-67
2022/09/17 11:58:47;;;;;;;;;;;23.00;44.80;21.70;100708.00;;;;5087450;27;19943;-66
2022/09/17 12:01:46;;;;;;;;;;;23.00;44.80;21.70;100710.00;;;;5091941;27;20367;-67
2022/09/17 12:04:56;;;;;;;;;;;23.00;44.80;21.70;100706.00;;;;5093408;27;20345;-67
2022/09/17 12:07:48;;;;;;;;;;;23.00;44.80;21.70;100713.00;;;;5107158;27;19920;-66
2022/09/17 12:10:46;;;;;;;;;;;22.90;44.70;21.70;100701.00;;;;5101688;27;19916;-67
2022/09/17 12:13:44;;;;;;;;;;;23.00;44.80;21.70;100709.00;;;;5082414;27;19912;-67
2022/09/17 12:16:42;;;;;;;;;;;23.00;44.80;21.80;100699.00;;;;5079793;27;20376;-66
2022/09/17 12:19:43;;;;;;;;;;;23.00;44.80;21.80;100704.00;;;;5086698;27;19915;-67
2022/09/17 12:22:30;;;;;;;;;;;23.00;44.80;21.80;100712.00;;;;5077657;27;19911;-66
2022/09/17 12:25:16;;;;;;;;;;;23.00;44.80;21.80;100694.00;;;;5083863;28;19919;-66
2022/09/17 12:28:09;;;;;;;;;;;23.10;44.80;21.80;100691.00;;;;5100103;27;19927;-66
2022/09/17 12:31:05;;;;;;;;;;;23.10;45.50;21.80;100679.00;;;;5088377;27;20406;-66
2022/09/17 12:33:56;;;;;;;;;;;23.10;44.70;21.80;100684.00;;;;5088117;27;19919;-67
2022/09/17 12:36:57;;;;;;;;;;;23.10;44.70;21.80;100687.00;;;;5085838;28;19949;-66
2022/09/17 12:39:59;;;;;;;;;;;23.10;44.70;21.80;100693.00;;;;5101968;28;20246;-67
2022/09/17 12:43:04;;;;;;;;;;;23.10;44.70;21.80;100701.00;;;;5089757;28;20170;-67
2022/09/17 12:46:14;;;;;;;;;;;23.10;44.70;21.80;100761.00;;;;5102771;27;19919;-67
2022/09/17 12:49:25;;;;;;;;;;;23.10;44.70;21.80;100784.00;;;;5098593;27;19922;-67
2022/09/17 12:52:44;;;;;;;;;;;23.10;44.70;21.80;100776.00;;;;5100922;27;19919;-67
2022/09/17 12:55:38;;;;;;;;;;;23.10;44.70;21.80;100764.00;;;;5086284;27;19918;-67
2022/09/17 12:59:02;;;;;;;;;;;23.10;44.60;21.80;100766.00;;;;5102185;27;20039;-67
2022/09/17 13:01:50;;;;;;;;;;;23.10;44.70;21.80;100774.00;;;;5099147;27;19916;-67
2022/09/17 13:04:53;;;;;;;;;;;23.10;44.70;21.80;100761.00;;;;5102263;28;19960;-67
2022/09/17 13:08:03;;;;;;;;;;;23.10;44.70;21.80;100746.00;;;;5090664;27;19911;-67
2022/09/17 13:10:53;;;;;;;;;;;23.10;44.70;21.80;100725.00;;;;5101032;27;19911;-66
2022/09/17 13:13:50;;;;;;;;;;;23.10;44.80;21.80;100716.00;;;;5113180;27;20301;-66
2022/09/17 13:16:42;;;;;;;;;;;23.10;44.80;21.80;100726.00;;;;5104542;27;19952;-66
2022/09/17 13:20:00;;;;;;;;;;;23.10;44.80;21.80;100723.00;;;;5090855;27;20472;-67
2022/09/17 13:22:50;;;;;;;;;;;23.10;44.80;21.80;100713.00;;;;5098732;27;19923;-66
2022/09/17 13:25:48;;;;;;;;;;;23.10;44.80;21.80;100706.00;;;;5088135;28;19925;-66
2022/09/17 13:28:50;;;;;;;;;;;23.10;44.80;21.80;100708.00;;;;5091431;27;19916;-66
2022/09/17 13:31:36;;;;;;;;;;;23.00;44.80;21.80;100695.00;;;;5089536;27;20420;-67
2022/09/17 13:34:29;;;;;;;;;;;23.00;44.80;21.80;100702.00;;;;5100414;27;20101;-66
2022/09/17 13:37:18;;;;;;;;;;;23.00;44.90;21.80;100704.00;;;;5084460;28;19999;-67
2022/09/17 13:40:18;;;;;;;;;;;23.00;44.90;21.80;100713.00;;;;5087610;28;19911;-66
2022/09/17 13:43:06;;;;;;;;;;;23.00;44.90;21.80;100702.00;;;;5096486;28;19920;-66
2022/09/17 13:45:59;;;;;;;;;;;23.00;44.90;21.80;100703.00;;;;5097031;28;20745;-66
2022/09/17 13:48:48;;;;;;;;;;;23.00;45.00;21.80;100708.00;;;;5084692;28;20001;-66
2022/09/17 13:51:36;;;;;;;;;;;23.00;45.00;21.80;100712.00;;;;5085975;28;20272;-66